Time;durP1;ratioP1;P1;durP2;ratioP2;P2;SDS_P1;SDS_P2;PMS_P1;PMS_P2;Temp;Humidity;BMP_temperature;BMP_pressure;BME280_temperature;BME280_humidity;BME280_pressure;Samples;Min_cycle;Max_cycle;Signal;HPM_P1;HPM_P2
2023/10/07 00:02:49;;;;;;;7.00;3.55;;;;;;;;;;5055252;28;20082;-59
2023/10/07 00:05:17;;;;;;;4.28;2.85;;;;;;;;;;5055893;28;20409;-60
2023/10/07 00:07:46;;;;;;;5.40;3.35;;;;;;;;;;5055316;28;20021;-60
2023/10/07 00:10:16;;;;;;;6.28;3.53;;;;;;;;;;5055682;28;20025;-60
2023/10/07 00:12:45;;;;;;;6.05;3.25;;;;;;;;;;5055305;28;20120;-59
2023/10/07 00:15:11;;;;;;;4.78;3.10;;;;;;;;;;5055706;28;20116;-60
2023/10/07 00:17:43;;;;;;;6.18;3.55;;;;;;;;;;5055319;28;20053;-59
2023/10/07 00:20:20;;;;;;;6.38;3.22;;;;;;;;;;5055620;28;20025;-60
2023/10/07 00:22:53;;;;;;;4.65;2.72;;;;;;;;;;5055924;28;20037;-59
2023/10/07 00:25:20;;;;;;;6.68;3.33;;;;;;;;;;5055603;28;20363;-59
2023/10/07 00:27:48;;;;;;;7.57;3.22;;;;;;;;;;5054693;28;20028;-60
2023/10/07 00:30:21;;;;;;;5.68;3.35;;;;;;;;;;5055441;28;20052;-59
2023/10/07 00:32:50;;;;;;;6.20;3.65;;;;;;;;;;5055057;28;20052;-59
2023/10/07 00:35:19;;;;;;;5.35;2.97;;;;;;;;;;5055052;28;20044;-60
2023/10/07 00:37:48;;;;;;;4.55;3.30;;;;;;;;;;5054716;28;20029;-59
2023/10/07 00:40:14;;;;;;;6.43;3.58;;;;;;;;;;5055257;28;20082;-59
2023/10/07 00:42:45;;;;;;;5.35;2.95;;;;;;;;;;5054965;28;20033;-59
2023/10/07 00:45:20;;;;;;;4.47;3.17;;;;;;;;;;5054591;28;20032;-59
2023/10/07 00:47:49;;;;;;;5.53;3.55;;;;;;;;;;5054270;28;20037;-60
2023/10/07 00:50:15;;;;;;;6.25;3.60;;;;;;;;;;5054812;28;20454;-59
2023/10/07 00:52:55;;;;;;;5.65;3.97;;;;;;;;;;5054498;28;20429;-59
2023/10/07 00:55:34;;;;;;;4.30;2.88;;;;;;;;;;5054551;28;20029;-59
2023/10/07 00:58:06;;;;;;;7.13;3.30;;;;;;;;;;5055122;28;20100;-60
2023/10/07 01:00:55;;;;;;;5.70;3.55;;;;;;;;;;5054890;28;20033;-59
2023/10/07 01:08:34;;;;;;;6.55;3.22;;;;;;;;;;5054371;28;20031;-59
2023/10/07 01:11:10;;;;;;;5.35;2.88;;;;;;;;;;5054467;28;20025;-59
2023/10/07 01:13:44;;;;;;;6.40;3.97;;;;;;;;;;5054276;28;20463;-59
2023/10/07 01:16:13;;;;;;;8.75;3.45;;;;;;;;;;5054638;28;20057;-59
2023/10/07 01:18:39;;;;;;;6.25;3.00;;;;;;;;;;5054501;28;20091;-59
2023/10/07 01:21:20;;;;;;;8.38;3.22;;;;;;;;;;5054509;28;20427;-59
2023/10/07 01:23:46;;;;;;;6.10;3.42;;;;;;;;;;5054846;28;20033;-59
2023/10/07 01:26:20;;;;;;;5.45;2.97;;;;;;;;;;5053940;28;20104;-59
2023/10/07 01:28:49;;;;;;;5.15;3.15;;;;;;;;;;5053048;28;20033;-59
2023/10/07 01:31:18;;;;;;;4.25;3.10;;;;;;;;;;5053829;28;20063;-59
2023/10/07 01:33:48;;;;;;;7.18;3.90;;;;;;;;;;5053650;28;20060;-59
2023/10/07 01:36:23;;;;;;;6.55;3.55;;;;;;;;;;5053587;28;20458;-59
2023/10/07 01:38:52;;;;;;;5.60;3.35;;;;;;;;;;5054311;28;20060;-59
2023/10/07 01:41:20;;;;;;;5.18;3.35;;;;;;;;;;5054009;28;20029;-60
2023/10/07 01:43:59;;;;;;;5.47;3.20;;;;;;;;;;5053625;28;20121;-59
2023/10/07 01:46:27;;;;;;;6.35;3.38;;;;;;;;;;5054421;28;20017;-59
2023/10/07 01:48:55;;;;;;;5.85;3.15;;;;;;;;;;5054084;28;20025;-59
2023/10/07 01:51:23;;;;;;;5.60;3.45;;;;;;;;;;5053812;28;20086;-59
2023/10/07 01:53:56;;;;;;;5.90;3.13;;;;;;;;;;5053957;28;20041;-59
2023/10/07 01:56:26;;;;;;;4.15;2.70;;;;;;;;;;5054026;28;20025;-59
2023/10/07 01:58:53;;;;;;;;;;;;;;;;;;5053795;28;20025;-59
2023/10/07 02:01:22;;;;;;;6.45;3.35;;;;;;;;;;5054028;28;19904;-59
2023/10/07 02:03:48;;;;;;;5.30;3.30;;;;;;;;;;5053405;28;20048;-59
2023/10/07 02:06:18;;;;;;;4.55;2.92;;;;;;;;;;5053122;28;20029;-59
2023/10/07 02:08:44;;;;;;;5.03;3.03;;;;;;;;;;5053335;28;20024;-59
2023/10/07 02:11:10;;;;;;;6.30;3.45;;;;;;;;;;5053929;28;20067;-59
2023/10/07 02:13:36;;;;;;;6.22;4.07;;;;;;;;;;5054022;28;20463;-59
2023/10/07 02:16:05;;;;;;;5.88;3.55;;;;;;;;;;5053729;28;20435;-59
2023/10/07 02:18:35;;;;;;;6.68;3.38;;;;;;;;;;5053322;28;20079;-59
2023/10/07 02:21:07;;;;;;;5.93;3.08;;;;;;;;;;5054071;28;20029;-60
2023/10/07 02:23:37;;;;;;;5.20;3.38;;;;;;;;;;5053795;28;20116;-59
2023/10/07 02:26:06;;;;;;;5.57;3.27;;;;;;;;;;5052901;28;20439;-59
2023/10/07 02:28:33;;;;;;;7.43;3.65;;;;;;;;;;5053728;28;20061;-60
2023/10/07 02:31:02;;;;;;;5.63;2.95;;;;;;;;;;5052192;28;20025;-59
2023/10/07 02:33:28;;;;;;;6.18;3.45;;;;;;;;;;5053341;28;20035;-59
2023/10/07 02:35:56;;;;;;;10.30;3.65;;;;;;;;;;5053579;28;20075;-59
2023/10/07 02:38:26;;;;;;;5.45;2.92;;;;;;;;;;5053129;28;20021;-59
2023/10/07 02:40:52;;;;;;;6.88;3.15;;;;;;;;;;5055867;28;20112;-59
2023/10/07 02:43:18;;;;;;;5.50;3.45;;;;;;;;;;5056946;28;20040;-59
2023/10/07 02:45:44;;;;;;;6.95;2.70;;;;;;;;;;5056966;28;20041;-59
2023/10/07 02:48:11;;;;;;;5.32;3.47;;;;;;;;;;5056567;28;20116;-59
2023/10/07 02:50:43;;;;;;;6.10;4.00;;;;;;;;;;5057417;28;20448;-59
2023/10/07 02:53:14;;;;;;;6.28;3.00;;;;;;;;;;5057473;28;20414;-59
2023/10/07 02:55:58;;;;;;;4.03;2.25;;;;;;;;;;5057314;28;20382;-59
2023/10/07 02:58:35;;;;;;;4.53;3.28;;;;;;;;;;5056783;28;20064;-59
2023/10/07 03:01:13;;;;;;;5.47;2.95;;;;;;;;;;5057227;28;20060;-59
2023/10/07 03:03:48;;;;;;;4.70;2.97;;;;;;;;;;5056623;28;20059;-59
2023/10/07 03:06:17;;;;;;;4.45;3.03;;;;;;;;;;5056737;28;20037;-59
2023/10/07 03:11:21;;;;;;;3.97;2.65;;;;;;;;;;5056545;28;20029;-59
2023/10/07 03:13:49;;;;;;;9.75;3.60;;;;;;;;;;5056811;28;20064;-59
2023/10/07 03:18:55;;;;;;;7.03;3.65;;;;;;;;;;5056394;28;20033;-59
2023/10/07 03:21:21;;;;;;;4.60;2.97;;;;;;;;;;5056581;28;20419;-59
2023/10/07 03:23:48;;;;;;;6.85;3.30;;;;;;;;;;5056726;28;20119;-59
2023/10/07 03:26:18;;;;;;;4.47;2.90;;;;;;;;;;5055385;28;20451;-59
2023/10/07 03:28:54;;;;;;;4.68;3.70;;;;;;;;;;5056071;28;20035;-59
2023/10/07 03:31:29;;;;;;;4.60;2.90;;;;;;;;;;5056620;28;20033;-59
2023/10/07 03:33:58;;;;;;;6.50;3.40;;;;;;;;;;5056770;28;20033;-59
2023/10/07 03:36:31;;;;;;;4.47;2.78;;;;;;;;;;5055901;28;20048;-59
2023/10/07 03:39:22;;;;;;;6.57;3.45;;;;;;;;;;5056171;28;20033;-59
2023/10/07 03:41:51;;;;;;;5.30;2.85;;;;;;;;;;5056371;28;20135;-59
2023/10/07 03:44:22;;;;;;;5.28;3.55;;;;;;;;;;5056316;28;20029;-59
2023/10/07 03:46:49;;;;;;;4.90;3.47;;;;;;;;;;5056267;28;20037;-59
2023/10/07 03:49:16;;;;;;;5.65;2.70;;;;;;;;;;5056272;28;20071;-59
2023/10/07 03:51:45;;;;;;;4.22;3.00;;;;;;;;;;5054668;28;20375;-59
2023/10/07 03:54:15;;;;;;;5.97;2.63;;;;;;;;;;5055594;28;20033;-59
2023/10/07 03:56:41;;;;;;;5.65;3.40;;;;;;;;;;5055931;28;20123;-59
2023/10/07 03:59:07;;;;;;;5.75;3.65;;;;;;;;;;5056249;28;20053;-59
2023/10/07 04:01:33;;;;;;;7.20;3.28;;;;;;;;;;5056086;28;20029;-59
2023/10/07 04:03:59;;;;;;;5.38;3.22;;;;;;;;;;5055922;28;20028;-59
2023/10/07 04:06:32;;;;;;;4.85;2.90;;;;;;;;;;5055426;28;20444;-59
2023/10/07 04:09:08;;;;;;;6.15;2.97;;;;;;;;;;5055655;28;20025;-59
2023/10/07 04:11:34;;;;;;;4.85;2.85;;;;;;;;;;5055825;28;20115;-59
2023/10/07 04:14:07;;;;;;;5.55;3.67;;;;;;;;;;5055686;28;20135;-59
2023/10/07 04:16:33;;;;;;;5.32;3.35;;;;;;;;;;5056060;28;20427;-59
2023/10/07 04:20:14;;;;;;;4.90;3.50;;;;;;;;;;5055057;28;20115;-59
2023/10/07 04:21:55;;;;;;;5.47;3.58;;;;;;;;;;5054286;28;20090;-59
2023/10/07 04:24:24;;;;;;;7.63;4.50;;;;;;;;;;5055825;28;20059;-59
2023/10/07 04:27:02;;;;;;;4.70;2.92;;;;;;;;;;5055518;28;20040;-59
2023/10/07 04:29:28;;;;;;;5.28;3.65;;;;;;;;;;5054984;28;20025;-59
2023/10/07 04:31:54;;;;;;;5.30;3.85;;;;;;;;;;5054924;28;20064;-59
2023/10/07 04:34:24;;;;;;;7.10;3.60;;;;;;;;;;5054740;28;20048;-59
2023/10/07 04:39:28;;;;;;;7.00;3.85;;;;;;;;;;5054852;28;20037;-59
2023/10/07 04:42:03;;;;;;;7.05;3.80;;;;;;;;;;5054740;28;20033;-59
2023/10/07 04:47:29;;;;;;;9.75;3.95;;;;;;;;;;5054758;28;20471;-59
2023/10/07 04:50:03;;;;;;;5.68;3.15;;;;;;;;;;5054540;28;20356;-59
2023/10/07 04:52:30;;;;;;;5.93;3.58;;;;;;;;;;5055007;28;20033;-59
2023/10/07 04:54:58;;;;;;;4.25;3.28;;;;;;;;;;5054471;28;20029;-59
2023/10/07 05:00:17;;;;;;;5.15;4.10;;;;;;;;;;5054667;28;20079;-59
2023/10/07 05:02:48;;;;;;;6.75;3.55;;;;;;;;;;5054335;28;20037;-59
2023/10/07 05:05:14;;;;;;;6.78;3.45;;;;;;;;;;5054863;28;20025;-59
2023/10/07 05:07:43;;;;;;;6.13;3.80;;;;;;;;;;5054558;28;20150;-59
2023/10/07 05:10:09;;;;;;;5.93;3.45;;;;;;;;;;5055110;28;20032;-59
2023/10/07 05:12:35;;;;;;;6.38;4.10;;;;;;;;;;5054197;28;20036;-59
2023/10/07 05:15:05;;;;;;;5.53;4.00;;;;;;;;;;5054194;28;20021;-59
2023/10/07 05:17:36;;;;;;;6.10;3.43;;;;;;;;;;5054649;28;20021;-59
2023/10/07 05:20:05;;;;;;;7.28;3.63;;;;;;;;;;5054473;28;20071;-59
2023/10/07 05:22:31;;;;;;;5.75;4.10;;;;;;;;;;5054543;28;20445;-59
2023/10/07 05:24:59;;;;;;;5.75;3.60;;;;;;;;;;5054541;28;20044;-59
2023/10/07 05:27:25;;;;;;;6.47;3.63;;;;;;;;;;5054991;28;20087;-59
2023/10/07 05:29:51;;;;;;;5.38;3.40;;;;;;;;;;5054246;28;20029;-59
2023/10/07 05:32:18;;;;;;;5.35;3.00;;;;;;;;;;5053780;28;20036;-59
2023/10/07 05:34:47;;;;;;;6.95;3.67;;;;;;;;;;5053684;28;20056;-59
2023/10/07 05:37:14;;;;;;;4.82;3.28;;;;;;;;;;5054361;28;20058;-59
2023/10/07 05:39:41;;;;;;;7.05;4.25;;;;;;;;;;5053818;28;20035;-59
2023/10/07 05:42:07;;;;;;;5.60;3.80;;;;;;;;;;5053741;28;20116;-59
2023/10/07 05:44:35;;;;;;;6.80;3.67;;;;;;;;;;5053401;28;20162;-59
2023/10/07 05:47:02;;;;;;;6.13;3.95;;;;;;;;;;5053372;28;20451;-59
2023/10/07 05:49:31;;;;;;;7.18;3.22;;;;;;;;;;5053717;28;20060;-59
2023/10/07 05:51:58;;;;;;;7.03;2.90;;;;;;;;;;5054017;28;20478;-59
2023/10/07 05:54:24;;;;;;;5.80;3.80;;;;;;;;;;5053274;28;20061;-59
2023/10/07 05:56:50;;;;;;;5.10;3.33;;;;;;;;;;5053910;28;20510;-59
2023/10/07 05:59:16;;;;;;;6.70;3.38;;;;;;;;;;5053462;28;20052;-59
2023/10/07 06:01:42;;;;;;;6.85;3.95;;;;;;;;;;5053484;28;20048;-59
2023/10/07 06:04:08;;;;;;;6.35;3.17;;;;;;;;;;5053458;28;20352;-59
2023/10/07 06:06:35;;;;;;;5.97;3.22;;;;;;;;;;5053949;28;20025;-59
2023/10/07 06:09:03;;;;;;;5.97;3.55;;;;;;;;;;5053425;28;20082;-59
2023/10/07 06:11:34;;;;;;;4.90;2.97;;;;;;;;;;5053969;28;20060;-59
2023/10/07 06:14:02;;;;;;;6.22;3.47;;;;;;;;;;5053886;28;20033;-59
2023/10/07 06:16:29;;;;;;;5.75;3.45;;;;;;;;;;5056730;28;20090;-59
2023/10/07 06:18:56;;;;;;;6.72;3.15;;;;;;;;;;5058297;28;20351;-59
2023/10/07 06:21:31;;;;;;;5.47;3.00;;;;;;;;;;5058001;28;20420;-59
2023/10/07 06:24:04;;;;;;;5.53;3.58;;;;;;;;;;5057441;28;20029;-59
2023/10/07 06:26:31;;;;;;;5.13;3.00;;;;;;;;;;5057941;28;20087;-59
2023/10/07 06:29:05;;;;;;;4.63;2.80;;;;;;;;;;5057829;28;20055;-59
2023/10/07 06:31:31;;;;;;;4.88;3.33;;;;;;;;;;5058150;28;20377;-59
2023/10/07 06:34:03;;;;;;;7.82;2.90;;;;;;;;;;5056939;28;20386;-59
2023/10/07 06:36:33;;;;;;;5.45;3.53;;;;;;;;;;5057191;28;20033;-59
2023/10/07 06:39:01;;;;;;;4.53;3.10;;;;;;;;;;5057359;28;20470;-59
2023/10/07 06:41:28;;;;;;;5.85;3.33;;;;;;;;;;5057567;28;20033;-59
2023/10/07 06:43:59;;;;;;;3.78;3.08;;;;;;;;;;5056968;28;20094;-59
2023/10/07 06:46:25;;;;;;;4.72;3.63;;;;;;;;;;5056912;28;20028;-59
2023/10/07 06:48:51;;;;;;;3.38;2.75;;;;;;;;;;5056973;28;20025;-59
2023/10/07 06:51:17;;;;;;;7.10;3.30;;;;;;;;;;5057179;28;20051;-59
2023/10/07 06:53:43;;;;;;;6.20;3.05;;;;;;;;;;5057317;28;20423;-59
2023/10/07 06:56:20;;;;;;;4.63;2.97;;;;;;;;;;5057072;28;20036;-59
2023/10/07 06:58:53;;;;;;;6.10;3.10;;;;;;;;;;5056803;28;20029;-59
2023/10/07 07:01:35;;;;;;;3.92;2.92;;;;;;;;;;5056672;28;20029;-59
2023/10/07 07:04:09;;;;;;;4.30;2.45;;;;;;;;;;5057251;28;20032;-59
2023/10/07 07:06:42;;;;;;;6.43;3.85;;;;;;;;;;5056850;28;20074;-59
2023/10/07 07:09:41;;;;;;;5.18;3.10;;;;;;;;;;5056512;28;20108;-59
2023/10/07 07:11:57;;;;;;;5.53;3.30;;;;;;;;;;5056307;28;20171;-59
2023/10/07 07:14:28;;;;;;;5.25;3.22;;;;;;;;;;5056410;28;20033;-59
2023/10/07 07:16:54;;;;;;;4.60;2.80;;;;;;;;;;5056264;28;20034;-59
2023/10/07 07:19:22;;;;;;;4.63;2.88;;;;;;;;;;5056885;28;20032;-59
2023/10/07 07:21:49;;;;;;;4.72;2.78;;;;;;;;;;5056283;28;20025;-59
2023/10/07 07:24:15;;;;;;;4.43;2.90;;;;;;;;;;5056251;28;20033;-59
2023/10/07 07:26:51;;;;;;;5.75;3.20;;;;;;;;;;5055560;28;20029;-59
2023/10/07 07:29:18;;;;;;;4.65;3.20;;;;;;;;;;5056437;28;20094;-59
2023/10/07 07:31:46;;;;;;;4.05;2.67;;;;;;;;;;5056810;28;20033;-59
2023/10/07 07:34:26;;;;;;;5.05;2.58;;;;;;;;;;5056592;28;20036;-59
2023/10/07 07:37:04;;;;;;;5.10;2.75;;;;;;;;;;5056558;28;20017;-59
2023/10/07 07:39:30;;;;;;;5.55;3.35;;;;;;;;;;5055704;28;20525;-59
2023/10/07 07:42:15;;;;;;;5.25;3.13;;;;;;;;;;5055825;28;20067;-59
2023/10/07 07:44:58;;;;;;;4.38;3.25;;;;;;;;;;5055494;28;20025;-59
2023/10/07 07:47:27;;;;;;;5.05;3.15;;;;;;;;;;5056580;28;20021;-59
2023/10/07 07:49:53;;;;;;;4.15;2.90;;;;;;;;;;5056612;28;20029;-59
2023/10/07 07:52:19;;;;;;;7.55;3.28;;;;;;;;;;5055985;28;20075;-59
2023/10/07 07:54:46;;;;;;;3.83;2.42;;;;;;;;;;5056209;28;20116;-59
2023/10/07 07:57:12;;;;;;;6.00;3.15;;;;;;;;;;5055962;28;20017;-59
2023/10/07 07:59:38;;;;;;;5.57;3.10;;;;;;;;;;5055850;28;20470;-59
2023/10/07 08:04:47;;;;;;;3.83;2.78;;;;;;;;;;5055495;28;20051;-59
2023/10/07 08:09:52;;;;;;;4.13;2.95;;;;;;;;;;5055830;28;20360;-59
2023/10/07 08:12:19;;;;;;;6.07;3.47;;;;;;;;;;5055356;28;20065;-60
2023/10/07 08:14:50;;;;;;;4.68;2.47;;;;;;;;;;5055379;28;20037;-59
2023/10/07 08:17:19;;;;;;;4.97;2.88;;;;;;;;;;5055302;28;20411;-59
2023/10/07 08:19:49;;;;;;;4.07;2.60;;;;;;;;;;5055291;28;20357;-59
2023/10/07 08:22:18;;;;;;;5.40;3.10;;;;;;;;;;5055200;28;20025;-59
2023/10/07 08:24:44;;;;;;;4.28;2.80;;;;;;;;;;5055159;28;20138;-59
2023/10/07 08:29:56;;;;;;;4.32;2.67;;;;;;;;;;5055335;28;20044;-60
2023/10/07 08:32:35;;;;;;;4.53;2.85;;;;;;;;;;5055121;28;20459;-59
2023/10/07 08:35:00;;;;;;;6.60;3.75;;;;;;;;;;5054988;28;20064;-59
2023/10/07 08:37:32;;;;;;;3.75;2.63;;;;;;;;;;5055082;28;20021;-60
2023/10/07 08:40:08;;;;;;;4.15;2.22;;;;;;;;;;5054935;28;20021;-60
2023/10/07 08:42:36;;;;;;;4.93;2.60;;;;;;;;;;5055317;28;20055;-60
2023/10/07 08:45:14;;;;;;;8.25;3.17;;;;;;;;;;5055247;28;20367;-60
2023/10/07 08:47:48;;;;;;;5.22;3.03;;;;;;;;;;5055294;28;20417;-60
2023/10/07 08:50:15;;;;;;;4.22;2.83;;;;;;;;;;5055254;28;20032;-60
2023/10/07 08:52:42;;;;;;;7.78;2.58;;;;;;;;;;5054568;28;20041;-59
2023/10/07 08:55:09;;;;;;;6.60;2.90;;;;;;;;;;5054479;28;20049;-60
2023/10/07 08:57:36;;;;;;;5.72;3.28;;;;;;;;;;5054397;28;20043;-59
2023/10/07 09:00:11;;;;;;;5.68;3.17;;;;;;;;;;5054941;28;20025;-59
2023/10/07 09:02:39;;;;;;;5.45;3.20;;;;;;;;;;5054928;28;20356;-60
2023/10/07 09:05:16;;;;;;;5.65;3.15;;;;;;;;;;5054439;28;20395;-60
2023/10/07 09:07:48;;;;;;;4.32;3.35;;;;;;;;;;5054332;28;20058;-60
2023/10/07 09:10:15;;;;;;;6.22;3.40;;;;;;;;;;5054740;28;20029;-60
2023/10/07 09:12:56;;;;;;;3.85;2.78;;;;;;;;;;5054127;28;20029;-60
2023/10/07 09:15:34;;;;;;;5.75;2.72;;;;;;;;;;5054752;28;20029;-60
2023/10/07 09:18:03;;;;;;;5.35;3.08;;;;;;;;;;5054712;28;20033;-60
2023/10/07 09:20:31;;;;;;;5.78;3.60;;;;;;;;;;5054604;28;20059;-60
2023/10/07 09:23:00;;;;;;;7.15;4.00;;;;;;;;;;5054060;28;20484;-60
2023/10/07 09:25:31;;;;;;;4.15;2.95;;;;;;;;;;5053980;28;20029;-60
2023/10/07 09:27:58;;;;;;;4.13;2.92;;;;;;;;;;5054500;28;20100;-60
2023/10/07 09:33:19;;;;;;;4.68;3.03;;;;;;;;;;5053919;28;20033;-60
2023/10/07 09:35:49;;;;;;;5.00;2.83;;;;;;;;;;5054161;28;20494;-60
2023/10/07 09:38:33;;;;;;;6.38;3.33;;;;;;;;;;5054229;28;20021;-60
2023/10/07 09:43:47;;;;;;;7.63;3.47;;;;;;;;;;5054030;28;20086;-60
2023/10/07 09:46:24;;;;;;;5.35;2.67;;;;;;;;;;5053694;28;20033;-60
2023/10/07 09:48:51;;;;;;;8.00;3.20;;;;;;;;;;5054091;28;20064;-60
2023/10/07 09:51:34;;;;;;;4.03;2.75;;;;;;;;;;5053613;28;20068;-60
2023/10/07 09:54:16;;;;;;;4.50;2.97;;;;;;;;;;5053484;28;20040;-60
2023/10/07 09:57:06;;;;;;;3.67;2.67;;;;;;;;;;5053790;28;20032;-60
2023/10/07 09:59:48;;;;;;;4.22;2.63;;;;;;;;;;5054347;28;20404;-60
2023/10/07 10:02:24;;;;;;;3.47;2.13;;;;;;;;;;5054002;28;20435;-60
2023/10/07 10:05:11;;;;;;;5.07;2.30;;;;;;;;;;5054110;28;20049;-60
2023/10/07 10:07:47;;;;;;;2.45;1.83;;;;;;;;;;5054069;28;20033;-60
2023/10/07 10:10:16;;;;;;;2.70;1.98;;;;;;;;;;5053491;28;20576;-60
2023/10/07 10:12:49;;;;;;;4.88;2.60;;;;;;;;;;5053461;28;20040;-60
2023/10/07 10:17:55;;;;;;;4.07;1.70;;;;;;;;;;5053753;28;20036;-60
2023/10/07 10:20:27;;;;;;;3.45;2.10;;;;;;;;;;5053231;28;20494;-60
2023/10/07 10:22:53;;;;;;;2.47;1.42;;;;;;;;;;5054172;28;20041;-60
2023/10/07 10:28:02;;;;;;;3.58;1.67;;;;;;;;;;5053267;28;20029;-60
2023/10/07 10:30:28;;;;;;;3.97;2.15;;;;;;;;;;5053281;28;20059;-60
2023/10/07 10:32:57;;;;;;;5.25;2.63;;;;;;;;;;5053173;28;20037;-60
2023/10/07 10:35:24;;;;;;;4.80;2.28;;;;;;;;;;5053214;28;20055;-60
2023/10/07 10:37:59;;;;;;;3.28;2.08;;;;;;;;;;5053135;28;20057;-60
2023/10/07 10:40:31;;;;;;;4.53;2.13;;;;;;;;;;5053583;28;20036;-60
2023/10/07 10:42:58;;;;;;;2.80;1.40;;;;;;;;;;5053672;28;20049;-60
2023/10/07 10:45:26;;;;;;;4.38;2.03;;;;;;;;;;5053032;28;20328;-60
2023/10/07 10:47:53;;;;;;;5.82;2.28;;;;;;;;;;5053103;28;20457;-60
2023/10/07 10:50:22;;;;;;;6.28;2.55;;;;;;;;;;5053858;28;20025;-60
2023/10/07 10:52:48;;;;;;;3.38;1.92;;;;;;;;;;5052806;28;20063;-60
2023/10/07 10:55:15;;;;;;;3.72;2.05;;;;;;;;;;5053424;28;20036;-60
2023/10/07 10:57:41;;;;;;;4.00;1.92;;;;;;;;;;5052845;28;20017;-60
2023/10/07 11:00:19;;;;;;;6.10;2.67;;;;;;;;;;5053263;28;20025;-60
2023/10/07 11:02:45;;;;;;;3.00;1.85;;;;;;;;;;5056940;28;20060;-60
2023/10/07 11:05:12;;;;;;;3.92;2.17;;;;;;;;;;5056373;28;20471;-60
2023/10/07 11:07:39;;;;;;;5.03;2.33;;;;;;;;;;5056581;28;20356;-60
2023/10/07 11:10:07;;;;;;;3.10;1.48;;;;;;;;;;5056603;28;20028;-60
2023/10/07 11:12:33;;;;;;;4.13;2.17;;;;;;;;;;5056446;28;20125;-60
2023/10/07 11:15:13;;;;;;;3.63;2.22;;;;;;;;;;5056459;28;20112;-60
2023/10/07 11:17:42;;;;;;;3.45;1.95;;;;;;;;;;5056937;28;20371;-60
2023/10/07 11:20:17;;;;;;;3.92;2.03;;;;;;;;;;5056748;28;20032;-60
2023/10/07 11:22:45;;;;;;;4.03;1.67;;;;;;;;;;5056587;28;20108;-60
2023/10/07 11:25:14;;;;;;;6.38;2.15;;;;;;;;;;5056285;28;20497;-60
2023/10/07 11:27:42;;;;;;;4.63;2.13;;;;;;;;;;5056189;28;20052;-60
2023/10/07 11:30:15;;;;;;;5.85;2.75;;;;;;;;;;5056710;28;20036;-60
2023/10/07 11:32:43;;;;;;;4.07;2.58;;;;;;;;;;5056790;28;20035;-60
2023/10/07 11:35:16;;;;;;;4.10;2.08;;;;;;;;;;5056115;28;20049;-60
2023/10/07 11:37:49;;;;;;;5.85;2.25;;;;;;;;;;5055982;28;20017;-60
2023/10/07 11:40:15;;;;;;;3.88;2.33;;;;;;;;;;5056262;28;20059;-60
2023/10/07 11:42:41;;;;;;;3.28;1.80;;;;;;;;;;5056503;28;20075;-60
2023/10/07 11:45:09;;;;;;;7.32;2.67;;;;;;;;;;5055719;28;20017;-60
2023/10/07 11:47:39;;;;;;;4.00;2.13;;;;;;;;;;5055785;28;20029;-60
2023/10/07 11:50:07;;;;;;;3.20;2.17;;;;;;;;;;5056644;28;20053;-60
2023/10/07 11:52:33;;;;;;;4.10;2.35;;;;;;;;;;5055685;28;20052;-60
2023/10/07 11:55:00;;;;;;;3.35;2.03;;;;;;;;;;5056121;28;20024;-60
2023/10/07 11:57:27;;;;;;;5.75;2.60;;;;;;;;;;5056024;28;20029;-60
2023/10/07 11:59:53;;;;;;;4.20;2.33;;;;;;;;;;5055969;28;20024;-60
2023/10/07 12:02:21;;;;;;;3.53;2.08;;;;;;;;;;5056128;28;20454;-60
2023/10/07 12:04:48;;;;;;;4.55;2.20;;;;;;;;;;5055472;28;20021;-60
2023/10/07 12:07:14;;;;;;;3.45;1.77;;;;;;;;;;5055532;28;20484;-60
2023/10/07 12:09:51;;;;;;;3.58;2.33;;;;;;;;;;5055995;28;20017;-60
2023/10/07 12:12:17;;;;;;;4.47;2.00;;;;;;;;;;5055114;28;20417;-60
2023/10/07 12:14:43;;;;;;;4.35;2.40;;;;;;;;;;5055129;28;20029;-60
2023/10/07 12:17:09;;;;;;;3.28;2.00;;;;;;;;;;5055336;28;20024;-60
2023/10/07 12:19:39;;;;;;;4.25;2.08;;;;;;;;;;5055842;28;20036;-60
2023/10/07 12:22:05;;;;;;;2.90;1.88;;;;;;;;;;5055221;28;20055;-60
2023/10/07 12:24:32;;;;;;;3.03;1.60;;;;;;;;;;5055072;28;20483;-60
2023/10/07 12:26:59;;;;;;;3.33;2.03;;;;;;;;;;5055407;28;20083;-60
2023/10/07 12:29:25;;;;;;;3.00;1.77;;;;;;;;;;5055645;28;20021;-60
2023/10/07 12:31:51;;;;;;;3.20;2.15;;;;;;;;;;5055102;28;20044;-60
2023/10/07 12:34:18;;;;;;;4.90;2.35;;;;;;;;;;5054739;28;20053;-60
2023/10/07 12:36:44;;;;;;;3.40;1.98;;;;;;;;;;5055489;28;20348;-60
2023/10/07 12:39:14;;;;;;;4.53;2.58;;;;;;;;;;5054790;28;20028;-60
2023/10/07 12:41:41;;;;;;;3.47;2.05;;;;;;;;;;5055705;28;20021;-60
2023/10/07 12:44:10;;;;;;;4.03;1.80;;;;;;;;;;5054491;28;20028;-60
2023/10/07 12:46:37;;;;;;;2.85;1.55;;;;;;;;;;5054743;28;20036;-60
2023/10/07 12:49:04;;;;;;;4.88;2.30;;;;;;;;;;5055206;28;20037;-60
2023/10/07 12:51:31;;;;;;;3.72;2.33;;;;;;;;;;5055224;28;20142;-60
2023/10/07 12:53:59;;;;;;;5.30;2.78;;;;;;;;;;5054966;28;20460;-60
2023/10/07 12:56:25;;;;;;;6.00;2.67;;;;;;;;;;5054472;28;20497;-60
2023/10/07 12:58:53;;;;;;;6.43;3.33;;;;;;;;;;5054327;28;20060;-60
2023/10/07 13:01:19;;;;;;;4.68;2.10;;;;;;;;;;5055263;28;20132;-60
2023/10/07 13:03:47;;;;;;;3.83;1.88;;;;;;;;;;5054274;28;20047;-60
2023/10/07 13:06:16;;;;;;;3.60;2.40;;;;;;;;;;5054345;28;20071;-60
2023/10/07 13:08:42;;;;;;;3.95;2.20;;;;;;;;;;5054523;28;20025;-60
2023/10/07 13:11:13;;;;;;;6.60;2.25;;;;;;;;;;5054224;28;20090;-60
2023/10/07 13:13:45;;;;;;;7.05;2.45;;;;;;;;;;5054113;28;20116;-60
2023/10/07 13:16:11;;;;;;;3.40;2.03;;;;;;;;;;5054404;28;20127;-60
2023/10/07 13:18:39;;;;;;;2.95;1.85;;;;;;;;;;5054501;28;20021;-60
2023/10/07 13:21:11;;;;;;;6.97;2.53;;;;;;;;;;5054369;28;20028;-60
2023/10/07 13:23:38;;;;;;;3.75;2.40;;;;;;;;;;5054484;28;20061;-60
2023/10/07 13:26:08;;;;;;;3.55;2.33;;;;;;;;;;5054437;28;20029;-60
2023/10/07 13:28:37;;;;;;;4.82;2.65;;;;;;;;;;5053960;28;20025;-60
2023/10/07 13:31:06;;;;;;;3.40;2.15;;;;;;;;;;5054431;28;20033;-60
2023/10/07 13:33:32;;;;;;;3.80;2.33;;;;;;;;;;5053806;28;20025;-60
2023/10/07 13:35:57;;;;;;;3.97;2.13;;;;;;;;;;5053392;28;20095;-60
2023/10/07 13:38:24;;;;;;;5.53;2.30;;;;;;;;;;5054158;28;20025;-60
2023/10/07 13:40:50;;;;;;;6.35;2.28;;;;;;;;;;5053608;28;20055;-60
2023/10/07 13:43:17;;;;;;;3.45;1.88;;;;;;;;;;5053298;28;20024;-60
2023/10/07 13:45:43;;;;;;;3.20;1.73;;;;;;;;;;5054124;28;20086;-60
2023/10/07 13:48:10;;;;;;;4.65;2.50;;;;;;;;;;5053739;28;20020;-60
2023/10/07 13:50:39;;;;;;;3.95;2.28;;;;;;;;;;5054202;28;20056;-60
2023/10/07 13:58:12;;;;;;;4.13;2.10;;;;;;;;;;5053603;28;20029;-60
2023/10/07 14:00:44;;;;;;;3.92;2.20;;;;;;;;;;5053621;28;20021;-60
2023/10/07 14:03:20;;;;;;;3.85;2.42;;;;;;;;;;5053863;28;20036;-60
2023/10/07 14:05:49;;;;;;;3.97;1.98;;;;;;;;;;5053495;28;20025;-60
2023/10/07 14:08:19;;;;;;;3.78;2.00;;;;;;;;;;5053717;28;20111;-60
2023/10/07 14:10:50;;;;;;;5.55;2.47;;;;;;;;;;5054063;28;20043;-60
2023/10/07 14:13:18;;;;;;;5.20;2.40;;;;;;;;;;5053857;28;20420;-60
2023/10/07 14:15:47;;;;;;;3.47;1.92;;;;;;;;;;5053030;28;20025;-60
2023/10/07 14:18:14;;;;;;;4.07;2.30;;;;;;;;;;5054039;28;20037;-60
2023/10/07 14:20:41;;;;;;;3.90;2.42;;;;;;;;;;5053400;28;20025;-60
2023/10/07 14:23:08;;;;;;;3.97;2.25;;;;;;;;;;5053280;28;20029;-60
2023/10/07 14:25:37;;;;;;;3.05;1.90;;;;;;;;;;5053317;28;20107;-60
2023/10/07 14:28:04;;;;;;;3.95;2.50;;;;;;;;;;5053286;28;20032;-60
2023/10/07 14:30:30;;;;;;;3.15;1.70;;;;;;;;;;5053349;28;20075;-60
2023/10/07 14:32:56;;;;;;;3.65;2.33;;;;;;;;;;5053160;28;20374;-60
2023/10/07 14:35:22;;;;;;;3.17;2.03;;;;;;;;;;5052958;28;20053;-60
2023/10/07 14:37:48;;;;;;;3.83;2.60;;;;;;;;;;5057099;28;20044;-60
2023/10/07 14:40:18;;;;;;;6.72;2.03;;;;;;;;;;5056990;28;20032;-60
2023/10/07 14:42:44;;;;;;;8.45;1.83;;;;;;;;;;5057299;28;20025;-60
2023/10/07 14:45:10;;;;;;;4.53;2.25;;;;;;;;;;5056619;28;20112;-60
2023/10/07 14:47:36;;;;;;;4.65;2.45;;;;;;;;;;5056975;28;20458;-60
2023/10/07 14:50:06;;;;;;;3.85;2.50;;;;;;;;;;5057036;28;20032;-60
2023/10/07 14:52:32;;;;;;;3.97;2.47;;;;;;;;;;5056716;28;20475;-60
2023/10/07 14:54:58;;;;;;;6.25;2.53;;;;;;;;;;5056878;28;20025;-60
2023/10/07 14:57:24;;;;;;;4.30;2.05;;;;;;;;;;5057279;28;20025;-60
2023/10/07 14:59:51;;;;;;;3.25;1.92;;;;;;;;;;5057413;28;20029;-60
2023/10/07 15:02:18;;;;;;;7.43;2.25;;;;;;;;;;5056750;28;20158;-60
2023/10/07 15:04:45;;;;;;;3.65;1.95;;;;;;;;;;5056812;28;20463;-60
2023/10/07 15:07:11;;;;;;;3.90;2.13;;;;;;;;;;5057091;28;20033;-60
2023/10/07 15:09:37;;;;;;;3.25;2.10;;;;;;;;;;5057206;28;20086;-60
2023/10/07 15:12:07;;;;;;;4.07;2.15;;;;;;;;;;5056952;28;20078;-60
2023/10/07 15:14:33;;;;;;;4.18;2.22;;;;;;;;;;5057307;28;20029;-60
2023/10/07 15:17:00;;;;;;;3.95;2.15;;;;;;;;;;5057184;28;20043;-60
2023/10/07 15:19:26;;;;;;;3.92;2.28;;;;;;;;;;5056950;28;20025;-60
2023/10/07 15:21:52;;;;;;;4.13;2.30;;;;;;;;;;5056362;28;20021;-60
2023/10/07 15:24:21;;;;;;;3.90;2.13;;;;;;;;;;5056349;28;20096;-60
2023/10/07 15:26:48;;;;;;;4.88;1.92;;;;;;;;;;5056257;28;20108;-60
2023/10/07 15:29:14;;;;;;;3.50;1.83;;;;;;;;;;5056760;28;20029;-60
2023/10/07 15:31:41;;;;;;;4.07;2.28;;;;;;;;;;5056668;28;20025;-60
2023/10/07 15:34:08;;;;;;;3.53;2.10;;;;;;;;;;5055811;28;20037;-60
2023/10/07 15:36:37;;;;;;;5.90;2.38;;;;;;;;;;5056057;28;20017;-60
2023/10/07 15:39:03;;;;;;;3.80;2.13;;;;;;;;;;5055939;28;20033;-60
2023/10/07 15:41:29;;;;;;;3.80;2.30;;;;;;;;;;5056033;28;20459;-60